sensor_id;sensor_type;location;lat;lon;timestamp;P1;durP1;ratioP1;P2;durP2;ratioP2
19111;SDS011;9688;51.906;8.376;2023-12-07T00:01:46;42.70;;;21.90;;
19111;SDS011;9688;51.906;8.376;2023-12-07T00:04:33;39.30;;;20.80;;
19111;SDS011;9688;51.906;8.376;2023-12-07T00:07:18;39.27;;;20.47;;
19111;SDS011;9688;51.906;8.376;2023-12-07T00:10:05;42.40;;;21.20;;
19111;SDS011;9688;51.906;8.376;2023-12-07T00:12:51;44.60;;;22.03;;
19111;SDS011;9688;51.906;8.376;2023-12-07T00:15:37;43.50;;;22.23;;
19111;SDS011;9688;51.906;8.376;2023-12-07T00:18:22;42.17;;;22.43;;
19111;SDS011;9688;51.906;8.376;2023-12-07T00:21:10;44.13;;;22.73;;
19111;SDS011;9688;51.906;8.376;2023-12-07T00:23:56;47.40;;;24.30;;
19111;SDS011;9688;51.906;8.376;2023-12-07T00:26:41;40.97;;;21.40;;
19111;SDS011;9688;51.906;8.376;2023-12-07T00:29:27;43.50;;;23.13;;
19111;SDS011;9688;51.906;8.376;2023-12-07T00:32:13;42.53;;;21.87;;
19111;SDS011;9688;51.906;8.376;2023-12-07T00:34:59;41.00;;;20.53;;
19111;SDS011;9688;51.906;8.376;2023-12-07T00:37:47;41.57;;;20.53;;
19111;SDS011;9688;51.906;8.376;2023-12-07T00:40:33;39.50;;;20.30;;
19111;SDS011;9688;51.906;8.376;2023-12-07T00:43:20;40.20;;;21.67;;
19111;SDS011;9688;51.906;8.376;2023-12-07T00:46:06;43.60;;;21.97;;
19111;SDS011;9688;51.906;8.376;2023-12-07T00:48:52;43.10;;;21.60;;
19111;SDS011;9688;51.906;8.376;2023-12-07T00:51:38;48.53;;;23.47;;
19111;SDS011;9688;51.906;8.376;2023-12-07T00:54:25;47.30;;;23.87;;
19111;SDS011;9688;51.906;8.376;2023-12-07T00:57:11;48.27;;;23.80;;
19111;SDS011;9688;51.906;8.376;2023-12-07T00:59:56;50.73;;;24.77;;
19111;SDS011;9688;51.906;8.376;2023-12-07T01:02:42;45.33;;;22.90;;
19111;SDS011;9688;51.906;8.376;2023-12-07T01:05:28;49.40;;;23.87;;
19111;SDS011;9688;51.906;8.376;2023-12-07T01:08:14;42.13;;;22.97;;
19111;SDS011;9688;51.906;8.376;2023-12-07T01:11:01;48.33;;;23.77;;
19111;SDS011;9688;51.906;8.376;2023-12-07T01:13:47;47.63;;;23.47;;
19111;SDS011;9688;51.906;8.376;2023-12-07T01:16:33;48.40;;;23.80;;
19111;SDS011;9688;51.906;8.376;2023-12-07T01:19:19;48.13;;;24.47;;
19111;SDS011;9688;51.906;8.376;2023-12-07T01:22:05;48.90;;;25.07;;
19111;SDS011;9688;51.906;8.376;2023-12-07T01:24:51;53.00;;;24.77;;
19111;SDS011;9688;51.906;8.376;2023-12-07T01:27:38;51.10;;;24.23;;
19111;SDS011;9688;51.906;8.376;2023-12-07T01:30:23;48.20;;;23.40;;
19111;SDS011;9688;51.906;8.376;2023-12-07T01:33:09;49.47;;;24.40;;
19111;SDS011;9688;51.906;8.376;2023-12-07T01:35:55;50.50;;;24.83;;
19111;SDS011;9688;51.906;8.376;2023-12-07T01:38:41;49.53;;;24.57;;
19111;SDS011;9688;51.906;8.376;2023-12-07T01:41:27;44.70;;;21.93;;
19111;SDS011;9688;51.906;8.376;2023-12-07T01:44:14;52.97;;;24.13;;
19111;SDS011;9688;51.906;8.376;2023-12-07T01:47:00;52.77;;;24.73;;
19111;SDS011;9688;51.906;8.376;2023-12-07T01:49:48;46.33;;;22.37;;
19111;SDS011;9688;51.906;8.376;2023-12-07T01:52:34;51.40;;;24.80;;
19111;SDS011;9688;51.906;8.376;2023-12-07T01:55:21;49.93;;;24.17;;
19111;SDS011;9688;51.906;8.376;2023-12-07T01:58:08;45.73;;;22.07;;
19111;SDS011;9688;51.906;8.376;2023-12-07T02:00:56;57.80;;;24.90;;
19111;SDS011;9688;51.906;8.376;2023-12-07T02:03:42;48.57;;;23.40;;
19111;SDS011;9688;51.906;8.376;2023-12-07T02:06:28;52.23;;;23.40;;
19111;SDS011;9688;51.906;8.376;2023-12-07T02:09:14;52.07;;;25.57;;
19111;SDS011;9688;51.906;8.376;2023-12-07T02:12:00;52.37;;;24.07;;
19111;SDS011;9688;51.906;8.376;2023-12-07T02:14:45;57.53;;;26.13;;
19111;SDS011;9688;51.906;8.376;2023-12-07T02:17:34;50.50;;;24.17;;
19111;SDS011;9688;51.906;8.376;2023-12-07T02:20:25;57.30;;;25.93;;
19111;SDS011;9688;51.906;8.376;2023-12-07T02:23:14;53.23;;;25.03;;
19111;SDS011;9688;51.906;8.376;2023-12-07T02:29:35;55.13;;;25.23;;
19111;SDS011;9688;51.906;8.376;2023-12-07T02:32:20;52.23;;;23.73;;
19111;SDS011;9688;51.906;8.376;2023-12-07T02:35:06;49.67;;;24.57;;
19111;SDS011;9688;51.906;8.376;2023-12-07T02:37:55;47.10;;;24.30;;
19111;SDS011;9688;51.906;8.376;2023-12-07T02:40:41;51.57;;;24.83;;
19111;SDS011;9688;51.906;8.376;2023-12-07T02:43:29;46.43;;;23.33;;
19111;SDS011;9688;51.906;8.376;2023-12-07T02:46:16;47.93;;;23.53;;
19111;SDS011;9688;51.906;8.376;2023-12-07T02:49:03;51.43;;;23.90;;
19111;SDS011;9688;51.906;8.376;2023-12-07T02:51:49;43.80;;;22.53;;
19111;SDS011;9688;51.906;8.376;2023-12-07T02:54:35;43.40;;;23.07;;
19111;SDS011;9688;51.906;8.376;2023-12-07T02:57:21;51.40;;;23.77;;
19111;SDS011;9688;51.906;8.376;2023-12-07T03:00:06;50.37;;;23.37;;
19111;SDS011;9688;51.906;8.376;2023-12-07T03:02:55;46.70;;;21.97;;
19111;SDS011;9688;51.906;8.376;2023-12-07T03:05:40;40.03;;;21.27;;
19111;SDS011;9688;51.906;8.376;2023-12-07T03:08:26;46.37;;;24.07;;
19111;SDS011;9688;51.906;8.376;2023-12-07T03:11:12;42.40;;;22.43;;
19111;SDS011;9688;51.906;8.376;2023-12-07T03:13:58;41.87;;;22.30;;
19111;SDS011;9688;51.906;8.376;2023-12-07T03:16:44;44.63;;;21.43;;
19111;SDS011;9688;51.906;8.376;2023-12-07T03:19:31;45.00;;;20.80;;
19111;SDS011;9688;51.906;8.376;2023-12-07T03:22:17;39.20;;;20.43;;
19111;SDS011;9688;51.906;8.376;2023-12-07T03:25:02;37.90;;;20.03;;
19111;SDS011;9688;51.906;8.376;2023-12-07T03:27:49;42.90;;;20.80;;
19111;SDS011;9688;51.906;8.376;2023-12-07T03:30:34;36.80;;;19.70;;
19111;SDS011;9688;51.906;8.376;2023-12-07T03:33:20;36.83;;;20.47;;
19111;SDS011;9688;51.906;8.376;2023-12-07T03:36:10;39.40;;;21.27;;
19111;SDS011;9688;51.906;8.376;2023-12-07T03:38:56;35.10;;;19.27;;
19111;SDS011;9688;51.906;8.376;2023-12-07T03:41:42;40.80;;;21.37;;
19111;SDS011;9688;51.906;8.376;2023-12-07T03:44:28;38.33;;;20.03;;
19111;SDS011;9688;51.906;8.376;2023-12-07T03:47:14;36.50;;;19.93;;
19111;SDS011;9688;51.906;8.376;2023-12-07T03:50:00;40.23;;;20.67;;
19111;SDS011;9688;51.906;8.376;2023-12-07T03:52:47;42.67;;;21.40;;
19111;SDS011;9688;51.906;8.376;2023-12-07T03:55:33;40.33;;;20.03;;
19111;SDS011;9688;51.906;8.376;2023-12-07T03:58:19;44.53;;;21.43;;
19111;SDS011;9688;51.906;8.376;2023-12-07T04:01:05;39.47;;;20.70;;
19111;SDS011;9688;51.906;8.376;2023-12-07T04:03:50;43.87;;;22.17;;
19111;SDS011;9688;51.906;8.376;2023-12-07T04:06:36;42.63;;;20.10;;
19111;SDS011;9688;51.906;8.376;2023-12-07T04:09:24;41.47;;;20.47;;
19111;SDS011;9688;51.906;8.376;2023-12-07T04:12:09;40.20;;;20.17;;
19111;SDS011;9688;51.906;8.376;2023-12-07T04:14:55;37.07;;;19.27;;
19111;SDS011;9688;51.906;8.376;2023-12-07T04:17:41;40.30;;;21.03;;
19111;SDS011;9688;51.906;8.376;2023-12-07T04:20:27;45.73;;;22.70;;
19111;SDS011;9688;51.906;8.376;2023-12-07T04:23:12;47.33;;;23.10;;
19111;SDS011;9688;51.906;8.376;2023-12-07T04:26:00;43.27;;;21.37;;
19111;SDS011;9688;51.906;8.376;2023-12-07T04:28:45;43.83;;;21.90;;
19111;SDS011;9688;51.906;8.376;2023-12-07T04:31:31;39.93;;;20.37;;
19111;SDS011;9688;51.906;8.376;2023-12-07T04:34:19;40.37;;;20.50;;
19111;SDS011;9688;51.906;8.376;2023-12-07T04:37:05;40.30;;;20.73;;
19111;SDS011;9688;51.906;8.376;2023-12-07T04:39:50;46.13;;;22.70;;
19111;SDS011;9688;51.906;8.376;2023-12-07T04:42:37;38.73;;;19.43;;
19111;SDS011;9688;51.906;8.376;2023-12-07T04:45:23;40.10;;;20.80;;
19111;SDS011;9688;51.906;8.376;2023-12-07T04:48:09;43.33;;;22.37;;
19111;SDS011;9688;51.906;8.376;2023-12-07T04:50:55;36.77;;;20.00;;
19111;SDS011;9688;51.906;8.376;2023-12-07T04:53:43;36.27;;;19.80;;
19111;SDS011;9688;51.906;8.376;2023-12-07T04:56:31;41.30;;;21.53;;
19111;SDS011;9688;51.906;8.376;2023-12-07T04:59:18;42.00;;;21.97;;
19111;SDS011;9688;51.906;8.376;2023-12-07T05:02:03;42.27;;;21.40;;
19111;SDS011;9688;51.906;8.376;2023-12-07T05:04:49;45.07;;;21.80;;
19111;SDS011;9688;51.906;8.376;2023-12-07T05:07:35;42.97;;;21.93;;
19111;SDS011;9688;51.906;8.376;2023-12-07T05:10:21;40.43;;;21.20;;
19111;SDS011;9688;51.906;8.376;2023-12-07T05:13:07;39.60;;;20.87;;
19111;SDS011;9688;51.906;8.376;2023-12-07T05:15:54;42.90;;;22.07;;
19111;SDS011;9688;51.906;8.376;2023-12-07T05:18:40;43.63;;;21.77;;
19111;SDS011;9688;51.906;8.376;2023-12-07T05:21:27;43.43;;;21.23;;
19111;SDS011;9688;51.906;8.376;2023-12-07T05:24:13;46.70;;;22.03;;
19111;SDS011;9688;51.906;8.376;2023-12-07T05:26:59;42.33;;;21.40;;
19111;SDS011;9688;51.906;8.376;2023-12-07T05:29:45;40.17;;;20.73;;
19111;SDS011;9688;51.906;8.376;2023-12-07T05:32:32;41.27;;;21.40;;
19111;SDS011;9688;51.906;8.376;2023-12-07T05:35:17;44.87;;;22.10;;
19111;SDS011;9688;51.906;8.376;2023-12-07T05:38:03;46.60;;;22.67;;
19111;SDS011;9688;51.906;8.376;2023-12-07T05:40:49;52.47;;;24.10;;
19111;SDS011;9688;51.906;8.376;2023-12-07T05:43:34;44.37;;;22.00;;
19111;SDS011;9688;51.906;8.376;2023-12-07T05:46:20;44.97;;;22.03;;
19111;SDS011;9688;51.906;8.376;2023-12-07T05:49:07;43.50;;;23.40;;
19111;SDS011;9688;51.906;8.376;2023-12-07T05:51:53;54.57;;;24.23;;
19111;SDS011;9688;51.906;8.376;2023-12-07T05:54:39;46.93;;;22.70;;
19111;SDS011;9688;51.906;8.376;2023-12-07T05:57:26;48.70;;;24.07;;
19111;SDS011;9688;51.906;8.376;2023-12-07T06:00:12;52.73;;;24.37;;
19111;SDS011;9688;51.906;8.376;2023-12-07T06:03:00;52.90;;;24.73;;
19111;SDS011;9688;51.906;8.376;2023-12-07T06:05:47;52.43;;;25.20;;
19111;SDS011;9688;51.906;8.376;2023-12-07T06:08:33;57.23;;;25.37;;
19111;SDS011;9688;51.906;8.376;2023-12-07T06:11:18;59.77;;;25.97;;
19111;SDS011;9688;51.906;8.376;2023-12-07T06:14:04;53.53;;;25.17;;
19111;SDS011;9688;51.906;8.376;2023-12-07T06:16:51;53.70;;;25.63;;
19111;SDS011;9688;51.906;8.376;2023-12-07T06:19:37;61.33;;;25.67;;
19111;SDS011;9688;51.906;8.376;2023-12-07T06:22:24;52.73;;;24.73;;
19111;SDS011;9688;51.906;8.376;2023-12-07T06:25:10;58.83;;;24.80;;
19111;SDS011;9688;51.906;8.376;2023-12-07T06:27:56;58.10;;;26.07;;
19111;SDS011;9688;51.906;8.376;2023-12-07T06:30:42;58.17;;;27.13;;
19111;SDS011;9688;51.906;8.376;2023-12-07T06:33:29;63.03;;;26.97;;
19111;SDS011;9688;51.906;8.376;2023-12-07T06:36:18;65.70;;;26.83;;
19111;SDS011;9688;51.906;8.376;2023-12-07T06:39:06;69.23;;;28.03;;
19111;SDS011;9688;51.906;8.376;2023-12-07T06:41:52;63.40;;;26.57;;
19111;SDS011;9688;51.906;8.376;2023-12-07T06:44:39;59.83;;;26.17;;
19111;SDS011;9688;51.906;8.376;2023-12-07T06:47:28;61.10;;;27.47;;
19111;SDS011;9688;51.906;8.376;2023-12-07T06:50:17;65.77;;;29.37;;
19111;SDS011;9688;51.906;8.376;2023-12-07T06:53:03;70.60;;;28.93;;
19111;SDS011;9688;51.906;8.376;2023-12-07T06:55:50;78.77;;;29.77;;
19111;SDS011;9688;51.906;8.376;2023-12-07T06:58:36;79.03;;;30.50;;
19111;SDS011;9688;51.906;8.376;2023-12-07T07:01:22;79.70;;;29.93;;
19111;SDS011;9688;51.906;8.376;2023-12-07T07:04:08;82.17;;;30.33;;
19111;SDS011;9688;51.906;8.376;2023-12-07T07:06:54;80.20;;;29.33;;
19111;SDS011;9688;51.906;8.376;2023-12-07T07:09:39;77.40;;;28.83;;
19111;SDS011;9688;51.906;8.376;2023-12-07T07:12:26;77.97;;;30.63;;
19111;SDS011;9688;51.906;8.376;2023-12-07T07:15:14;80.37;;;31.23;;
19111;SDS011;9688;51.906;8.376;2023-12-07T07:18:00;78.60;;;28.13;;
19111;SDS011;9688;51.906;8.376;2023-12-07T07:20:47;81.60;;;28.47;;
19111;SDS011;9688;51.906;8.376;2023-12-07T07:23:33;77.83;;;28.80;;
19111;SDS011;9688;51.906;8.376;2023-12-07T07:26:20;107.37;;;34.37;;
19111;SDS011;9688;51.906;8.376;2023-12-07T07:29:09;102.53;;;33.87;;
19111;SDS011;9688;51.906;8.376;2023-12-07T07:31:55;86.93;;;31.03;;
19111;SDS011;9688;51.906;8.376;2023-12-07T07:34:41;89.97;;;30.93;;
19111;SDS011;9688;51.906;8.376;2023-12-07T07:37:27;101.53;;;31.93;;
19111;SDS011;9688;51.906;8.376;2023-12-07T07:40:13;99.13;;;32.87;;
19111;SDS011;9688;51.906;8.376;2023-12-07T07:42:59;93.13;;;32.43;;
19111;SDS011;9688;51.906;8.376;2023-12-07T07:45:46;78.23;;;28.57;;
19111;SDS011;9688;51.906;8.376;2023-12-07T07:48:32;90.80;;;32.93;;
19111;SDS011;9688;51.906;8.376;2023-12-07T07:51:18;81.13;;;29.80;;
19111;SDS011;9688;51.906;8.376;2023-12-07T07:54:04;97.10;;;33.47;;
19111;SDS011;9688;51.906;8.376;2023-12-07T07:56:50;73.70;;;29.17;;
19111;SDS011;9688;51.906;8.376;2023-12-07T07:59:36;90.37;;;30.80;;
19111;SDS011;9688;51.906;8.376;2023-12-07T08:02:24;77.60;;;28.47;;
19111;SDS011;9688;51.906;8.376;2023-12-07T08:05:09;71.30;;;28.57;;
19111;SDS011;9688;51.906;8.376;2023-12-07T08:07:55;79.60;;;27.97;;
19111;SDS011;9688;51.906;8.376;2023-12-07T08:10:41;86.67;;;29.47;;
19111;SDS011;9688;51.906;8.376;2023-12-07T08:13:27;81.23;;;27.87;;
19111;SDS011;9688;51.906;8.376;2023-12-07T08:16:13;69.97;;;27.10;;
19111;SDS011;9688;51.906;8.376;2023-12-07T08:19:01;67.33;;;26.90;;
19111;SDS011;9688;51.906;8.376;2023-12-07T08:21:46;68.67;;;27.77;;
19111;SDS011;9688;51.906;8.376;2023-12-07T08:24:33;72.37;;;26.73;;
19111;SDS011;9688;51.906;8.376;2023-12-07T08:27:19;58.70;;;23.93;;
19111;SDS011;9688;51.906;8.376;2023-12-07T08:30:05;63.87;;;24.90;;
19111;SDS011;9688;51.906;8.376;2023-12-07T08:32:53;61.03;;;25.10;;
19111;SDS011;9688;51.906;8.376;2023-12-07T08:35:40;65.20;;;25.60;;
19111;SDS011;9688;51.906;8.376;2023-12-07T08:38:26;64.67;;;25.17;;
19111;SDS011;9688;51.906;8.376;2023-12-07T08:41:12;69.23;;;24.93;;
19111;SDS011;9688;51.906;8.376;2023-12-07T08:43:58;70.23;;;27.27;;
19111;SDS011;9688;51.906;8.376;2023-12-07T08:46:45;69.80;;;27.27;;
19111;SDS011;9688;51.906;8.376;2023-12-07T08:49:32;74.80;;;27.93;;
19111;SDS011;9688;51.906;8.376;2023-12-07T08:52:19;65.23;;;27.70;;
19111;SDS011;9688;51.906;8.376;2023-12-07T08:55:05;72.63;;;28.83;;
19111;SDS011;9688;51.906;8.376;2023-12-07T08:57:52;67.77;;;25.87;;
19111;SDS011;9688;51.906;8.376;2023-12-07T09:00:38;62.53;;;26.23;;
19111;SDS011;9688;51.906;8.376;2023-12-07T09:03:25;58.20;;;25.17;;
19111;SDS011;9688;51.906;8.376;2023-12-07T09:06:16;65.40;;;23.23;;
19111;SDS011;9688;51.906;8.376;2023-12-07T09:09:03;51.23;;;21.73;;
19111;SDS011;9688;51.906;8.376;2023-12-07T09:11:49;49.43;;;21.43;;
19111;SDS011;9688;51.906;8.376;2023-12-07T09:14:35;49.60;;;22.90;;
19111;SDS011;9688;51.906;8.376;2023-12-07T09:17:20;62.77;;;24.57;;
19111;SDS011;9688;51.906;8.376;2023-12-07T09:20:07;55.97;;;24.80;;
19111;SDS011;9688;51.906;8.376;2023-12-07T09:22:56;54.23;;;23.97;;
19111;SDS011;9688;51.906;8.376;2023-12-07T09:25:43;51.93;;;23.57;;
19111;SDS011;9688;51.906;8.376;2023-12-07T09:28:31;55.53;;;23.60;;
19111;SDS011;9688;51.906;8.376;2023-12-07T09:31:18;60.00;;;26.10;;
19111;SDS011;9688;51.906;8.376;2023-12-07T09:34:04;50.23;;;23.23;;
19111;SDS011;9688;51.906;8.376;2023-12-07T09:36:50;57.83;;;23.07;;
19111;SDS011;9688;51.906;8.376;2023-12-07T09:39:51;68.20;;;26.33;;
19111;SDS011;9688;51.906;8.376;2023-12-07T09:42:38;52.23;;;23.87;;
19111;SDS011;9688;51.906;8.376;2023-12-07T09:45:26;53.40;;;22.53;;
19111;SDS011;9688;51.906;8.376;2023-12-07T09:48:12;48.23;;;22.20;;
19111;SDS011;9688;51.906;8.376;2023-12-07T09:50:59;46.03;;;21.17;;
19111;SDS011;9688;51.906;8.376;2023-12-07T09:53:46;48.70;;;21.13;;
19111;SDS011;9688;51.906;8.376;2023-12-07T09:56:39;56.50;;;23.70;;
19111;SDS011;9688;51.906;8.376;2023-12-07T09:59:26;55.73;;;23.10;;
19111;SDS011;9688;51.906;8.376;2023-12-07T10:02:13;44.43;;;21.63;;
19111;SDS011;9688;51.906;8.376;2023-12-07T10:05:03;44.20;;;20.60;;
19111;SDS011;9688;51.906;8.376;2023-12-07T10:07:49;56.07;;;22.70;;
19111;SDS011;9688;51.906;8.376;2023-12-07T10:10:36;47.13;;;20.43;;
19111;SDS011;9688;51.906;8.376;2023-12-07T10:13:23;41.70;;;19.70;;
19111;SDS011;9688;51.906;8.376;2023-12-07T10:16:13;43.30;;;20.17;;
19111;SDS011;9688;51.906;8.376;2023-12-07T10:19:12;39.07;;;18.63;;
19111;SDS011;9688;51.906;8.376;2023-12-07T10:22:01;39.47;;;18.80;;
19111;SDS011;9688;51.906;8.376;2023-12-07T10:25:06;38.23;;;19.07;;
19111;SDS011;9688;51.906;8.376;2023-12-07T10:27:52;37.40;;;19.47;;
19111;SDS011;9688;51.906;8.376;2023-12-07T10:30:39;43.33;;;22.38;;
19111;SDS011;9688;51.906;8.376;2023-12-07T10:33:27;36.73;;;19.00;;
19111;SDS011;9688;51.906;8.376;2023-12-07T10:36:15;41.57;;;18.70;;
19111;SDS011;9688;51.906;8.376;2023-12-07T10:39:01;33.87;;;17.60;;
19111;SDS011;9688;51.906;8.376;2023-12-07T10:41:50;32.63;;;17.10;;
19111;SDS011;9688;51.906;8.376;2023-12-07T10:44:43;37.23;;;18.67;;
19111;SDS011;9688;51.906;8.376;2023-12-07T10:47:34;35.93;;;16.93;;
19111;SDS011;9688;51.906;8.376;2023-12-07T10:50:22;39.37;;;19.07;;
19111;SDS011;9688;51.906;8.376;2023-12-07T10:53:10;30.40;;;16.23;;
19111;SDS011;9688;51.906;8.376;2023-12-07T10:56:11;30.27;;;15.43;;
19111;SDS011;9688;51.906;8.376;2023-12-07T10:59:02;32.17;;;15.80;;
19111;SDS011;9688;51.906;8.376;2023-12-07T11:01:48;33.50;;;15.80;;
19111;SDS011;9688;51.906;8.376;2023-12-07T11:04:35;32.47;;;16.53;;
19111;SDS011;9688;51.906;8.376;2023-12-07T11:07:24;33.70;;;17.03;;
19111;SDS011;9688;51.906;8.376;2023-12-07T11:10:16;32.23;;;16.70;;
19111;SDS011;9688;51.906;8.376;2023-12-07T11:13:08;31.57;;;16.27;;
19111;SDS011;9688;51.906;8.376;2023-12-07T11:16:00;34.73;;;15.83;;
19111;SDS011;9688;51.906;8.376;2023-12-07T11:18:46;34.80;;;15.97;;
19111;SDS011;9688;51.906;8.376;2023-12-07T11:21:33;29.07;;;15.27;;
19111;SDS011;9688;51.906;8.376;2023-12-07T11:24:21;33.87;;;16.47;;
19111;SDS011;9688;51.906;8.376;2023-12-07T11:27:08;44.83;;;19.87;;
19111;SDS011;9688;51.906;8.376;2023-12-07T11:29:54;35.77;;;18.10;;
19111;SDS011;9688;51.906;8.376;2023-12-07T11:32:40;38.20;;;17.97;;
19111;SDS011;9688;51.906;8.376;2023-12-07T11:35:26;34.13;;;16.40;;
19111;SDS011;9688;51.906;8.376;2023-12-07T11:38:13;30.70;;;16.10;;
19111;SDS011;9688;51.906;8.376;2023-12-07T11:41:04;31.23;;;17.37;;
19111;SDS011;9688;51.906;8.376;2023-12-07T11:43:50;28.73;;;15.27;;
19111;SDS011;9688;51.906;8.376;2023-12-07T11:46:40;30.83;;;16.27;;
19111;SDS011;9688;51.906;8.376;2023-12-07T11:49:26;27.07;;;15.10;;
19111;SDS011;9688;51.906;8.376;2023-12-07T11:52:14;29.47;;;15.47;;
19111;SDS011;9688;51.906;8.376;2023-12-07T11:55:01;30.70;;;16.17;;
19111;SDS011;9688;51.906;8.376;2023-12-07T11:57:48;32.87;;;16.37;;
19111;SDS011;9688;51.906;8.376;2023-12-07T12:00:36;30.40;;;16.50;;
19111;SDS011;9688;51.906;8.376;2023-12-07T12:03:22;27.07;;;15.23;;
19111;SDS011;9688;51.906;8.376;2023-12-07T12:06:08;31.83;;;16.40;;
19111;SDS011;9688;51.906;8.376;2023-12-07T12:08:56;30.50;;;15.67;;
19111;SDS011;9688;51.906;8.376;2023-12-07T12:11:44;28.83;;;16.63;;
19111;SDS011;9688;51.906;8.376;2023-12-07T12:14:32;35.43;;;17.17;;
19111;SDS011;9688;51.906;8.376;2023-12-07T12:17:18;29.53;;;16.20;;
19111;SDS011;9688;51.906;8.376;2023-12-07T12:20:05;30.53;;;15.93;;
19111;SDS011;9688;51.906;8.376;2023-12-07T12:22:51;28.67;;;15.93;;
19111;SDS011;9688;51.906;8.376;2023-12-07T12:25:38;28.63;;;16.40;;
19111;SDS011;9688;51.906;8.376;2023-12-07T12:28:25;28.97;;;15.67;;
19111;SDS011;9688;51.906;8.376;2023-12-07T12:31:13;25.50;;;14.43;;
19111;SDS011;9688;51.906;8.376;2023-12-07T12:34:00;24.53;;;14.07;;
19111;SDS011;9688;51.906;8.376;2023-12-07T12:36:50;28.97;;;14.83;;
19111;SDS011;9688;51.906;8.376;2023-12-07T12:39:36;30.93;;;15.07;;
19111;SDS011;9688;51.906;8.376;2023-12-07T12:42:21;28.07;;;15.77;;
19111;SDS011;9688;51.906;8.376;2023-12-07T12:45:08;28.93;;;15.57;;
19111;SDS011;9688;51.906;8.376;2023-12-07T12:47:57;26.33;;;14.83;;
19111;SDS011;9688;51.906;8.376;2023-12-07T12:50:44;30.83;;;14.90;;
19111;SDS011;9688;51.906;8.376;2023-12-07T12:53:29;27.77;;;15.07;;
19111;SDS011;9688;51.906;8.376;2023-12-07T12:56:15;29.40;;;14.93;;
19111;SDS011;9688;51.906;8.376;2023-12-07T12:59:02;25.60;;;14.33;;
19111;SDS011;9688;51.906;8.376;2023-12-07T13:01:48;31.43;;;15.40;;
19111;SDS011;9688;51.906;8.376;2023-12-07T13:04:35;28.53;;;14.13;;
19111;SDS011;9688;51.906;8.376;2023-12-07T13:07:21;23.73;;;13.87;;
19111;SDS011;9688;51.906;8.376;2023-12-07T13:10:08;28.03;;;14.73;;
19111;SDS011;9688;51.906;8.376;2023-12-07T13:12:55;29.03;;;14.37;;
19111;SDS011;9688;51.906;8.376;2023-12-07T13:15:40;26.67;;;14.33;;
19111;SDS011;9688;51.906;8.376;2023-12-07T13:18:26;30.07;;;16.10;;
19111;SDS011;9688;51.906;8.376;2023-12-07T13:21:14;36.73;;;17.27;;
19111;SDS011;9688;51.906;8.376;2023-12-07T13:23:59;23.37;;;13.87;;
19111;SDS011;9688;51.906;8.376;2023-12-07T13:26:48;29.93;;;15.03;;
19111;SDS011;9688;51.906;8.376;2023-12-07T13:29:35;29.17;;;15.63;;
19111;SDS011;9688;51.906;8.376;2023-12-07T13:32:20;25.10;;;13.67;;
19111;SDS011;9688;51.906;8.376;2023-12-07T13:35:07;27.20;;;14.03;;
19111;SDS011;9688;51.906;8.376;2023-12-07T13:37:56;22.30;;;12.53;;
19111;SDS011;9688;51.906;8.376;2023-12-07T13:40:41;25.57;;;13.37;;
19111;SDS011;9688;51.906;8.376;2023-12-07T13:43:27;27.80;;;15.43;;
19111;SDS011;9688;51.906;8.376;2023-12-07T13:46:13;21.23;;;12.53;;
19111;SDS011;9688;51.906;8.376;2023-12-07T13:49:01;24.10;;;13.63;;
19111;SDS011;9688;51.906;8.376;2023-12-07T13:51:48;25.87;;;13.67;;
19111;SDS011;9688;51.906;8.376;2023-12-07T13:54:38;21.80;;;12.53;;
19111;SDS011;9688;51.906;8.376;2023-12-07T13:57:23;17.93;;;11.43;;
19111;SDS011;9688;51.906;8.376;2023-12-07T14:00:11;21.27;;;12.13;;
19111;SDS011;9688;51.906;8.376;2023-12-07T14:03:01;21.37;;;11.70;;
19111;SDS011;9688;51.906;8.376;2023-12-07T14:05:48;20.83;;;11.70;;
19111;SDS011;9688;51.906;8.376;2023-12-07T14:08:34;18.97;;;11.50;;
19111;SDS011;9688;51.906;8.376;2023-12-07T14:11:22;21.37;;;12.03;;
19111;SDS011;9688;51.906;8.376;2023-12-07T14:14:08;21.50;;;11.80;;
19111;SDS011;9688;51.906;8.376;2023-12-07T14:16:57;23.70;;;11.87;;
19111;SDS011;9688;51.906;8.376;2023-12-07T14:19:50;24.43;;;12.90;;
19111;SDS011;9688;51.906;8.376;2023-12-07T14:22:42;21.47;;;11.43;;
19111;SDS011;9688;51.906;8.376;2023-12-07T14:25:31;19.70;;;11.00;;
19111;SDS011;9688;51.906;8.376;2023-12-07T14:28:24;21.70;;;12.07;;
19111;SDS011;9688;51.906;8.376;2023-12-07T14:31:14;19.80;;;11.00;;
19111;SDS011;9688;51.906;8.376;2023-12-07T14:34:02;17.50;;;10.30;;
19111;SDS011;9688;51.906;8.376;2023-12-07T14:36:50;19.93;;;11.10;;
19111;SDS011;9688;51.906;8.376;2023-12-07T14:39:37;18.97;;;10.90;;
19111;SDS011;9688;51.906;8.376;2023-12-07T14:42:25;20.30;;;11.13;;
19111;SDS011;9688;51.906;8.376;2023-12-07T14:45:12;23.87;;;11.93;;
19111;SDS011;9688;51.906;8.376;2023-12-07T14:47:59;18.63;;;10.50;;
19111;SDS011;9688;51.906;8.376;2023-12-07T14:50:46;20.90;;;11.13;;
19111;SDS011;9688;51.906;8.376;2023-12-07T14:53:34;22.20;;;11.67;;
19111;SDS011;9688;51.906;8.376;2023-12-07T14:56:21;18.47;;;11.23;;
19111;SDS011;9688;51.906;8.376;2023-12-07T14:59:07;23.70;;;13.03;;
19111;SDS011;9688;51.906;8.376;2023-12-07T15:01:56;22.30;;;11.60;;
19111;SDS011;9688;51.906;8.376;2023-12-07T15:04:43;20.37;;;11.70;;
19111;SDS011;9688;51.906;8.376;2023-12-07T15:07:29;22.47;;;11.17;;
19111;SDS011;9688;51.906;8.376;2023-12-07T15:10:14;18.70;;;10.57;;
19111;SDS011;9688;51.906;8.376;2023-12-07T15:13:01;20.33;;;11.53;;
19111;SDS011;9688;51.906;8.376;2023-12-07T15:15:47;24.20;;;12.17;;
19111;SDS011;9688;51.906;8.376;2023-12-07T15:18:34;23.17;;;12.93;;
19111;SDS011;9688;51.906;8.376;2023-12-07T15:21:21;18.83;;;12.03;;
19111;SDS011;9688;51.906;8.376;2023-12-07T15:24:07;25.70;;;13.80;;
19111;SDS011;9688;51.906;8.376;2023-12-07T15:26:54;26.83;;;13.50;;
19111;SDS011;9688;51.906;8.376;2023-12-07T15:29:43;22.63;;;13.30;;
19111;SDS011;9688;51.906;8.376;2023-12-07T15:32:31;21.90;;;12.07;;
19111;SDS011;9688;51.906;8.376;2023-12-07T15:35:19;21.27;;;11.03;;
19111;SDS011;9688;51.906;8.376;2023-12-07T15:38:05;25.97;;;12.83;;
19111;SDS011;9688;51.906;8.376;2023-12-07T15:40:51;27.80;;;15.30;;
19111;SDS011;9688;51.906;8.376;2023-12-07T15:43:39;23.83;;;12.67;;
19111;SDS011;9688;51.906;8.376;2023-12-07T15:46:26;21.73;;;11.37;;
19111;SDS011;9688;51.906;8.376;2023-12-07T15:49:11;19.50;;;9.93;;
19111;SDS011;9688;51.906;8.376;2023-12-07T15:51:59;15.80;;;9.43;;
19111;SDS011;9688;51.906;8.376;2023-12-07T15:54:45;15.17;;;9.77;;
19111;SDS011;9688;51.906;8.376;2023-12-07T15:57:31;19.37;;;9.97;;
19111;SDS011;9688;51.906;8.376;2023-12-07T16:00:18;16.17;;;9.60;;
19111;SDS011;9688;51.906;8.376;2023-12-07T16:03:04;13.83;;;9.17;;
19111;SDS011;9688;51.906;8.376;2023-12-07T16:05:50;15.70;;;8.77;;
19111;SDS011;9688;51.906;8.376;2023-12-07T16:08:37;16.57;;;9.97;;
19111;SDS011;9688;51.906;8.376;2023-12-07T16:11:23;16.20;;;9.80;;
19111;SDS011;9688;51.906;8.376;2023-12-07T16:14:09;19.77;;;10.80;;
19111;SDS011;9688;51.906;8.376;2023-12-07T16:16:55;19.03;;;9.90;;
19111;SDS011;9688;51.906;8.376;2023-12-07T16:19:42;20.93;;;11.00;;
19111;SDS011;9688;51.906;8.376;2023-12-07T16:22:28;20.47;;;11.23;;
19111;SDS011;9688;51.906;8.376;2023-12-07T16:25:16;18.37;;;11.23;;
19111;SDS011;9688;51.906;8.376;2023-12-07T16:28:02;23.33;;;12.00;;
19111;SDS011;9688;51.906;8.376;2023-12-07T16:30:47;19.17;;;11.23;;
19111;SDS011;9688;51.906;8.376;2023-12-07T16:33:34;20.03;;;10.97;;
19111;SDS011;9688;51.906;8.376;2023-12-07T16:36:21;20.13;;;11.47;;